createdAt,value
2022-11-13T00:00:09.856Z,35.50
2022-11-13T00:03:31.413Z,32.40
2022-11-13T00:06:58.793Z,32.20
2022-11-13T00:10:15.372Z,33.20
2022-11-13T00:13:17.275Z,32.40
2022-11-13T00:16:21.575Z,32.80
2022-11-13T00:19:23.406Z,31.60
2022-11-13T00:22:25.266Z,33.70
2022-11-13T00:25:27.004Z,32.60
2022-11-13T00:28:29.084Z,33.60
2022-11-13T00:31:31.248Z,33.20
2022-11-13T00:34:47.232Z,31.80
2022-11-13T00:37:49.912Z,36.30
2022-11-13T00:43:53.449Z,30.70
2022-11-13T00:46:55.252Z,34.30
2022-11-13T00:52:58.633Z,32.60
2022-11-13T00:56:00.813Z,34.00
2022-11-13T00:59:02.718Z,32.60
2022-11-13T01:02:04.472Z,33.60
2022-11-13T01:05:06.487Z,35.10
2022-11-13T01:08:09.510Z,35.80
2022-11-13T01:11:17.120Z,37.40
2022-11-13T01:14:18.696Z,34.60
2022-11-13T01:20:23.761Z,37.10
2022-11-13T01:23:25.475Z,38.20
2022-11-13T01:26:29.990Z,38.90
2022-11-13T01:29:32.103Z,38.70
2022-11-13T01:32:33.969Z,39.40
2022-11-13T01:35:35.603Z,39.10
2022-11-13T01:41:40.561Z,38.40
2022-11-13T01:44:55.059Z,35.70
2022-11-13T01:47:56.886Z,37.70
2022-11-13T01:50:58.946Z,31.90
2022-11-13T01:54:03.692Z,37.10
2022-11-13T01:57:09.244Z,34.20
2022-11-13T02:00:12.534Z,36.20
2022-11-13T02:03:14.345Z,38.00
2022-11-13T02:06:16.540Z,38.50
2022-11-13T02:09:30.988Z,35.00
2022-11-13T02:12:35.314Z,35.80
2022-11-13T02:15:37.437Z,31.10
2022-11-13T02:18:39.940Z,35.70
2022-11-13T02:21:56.523Z,34.80
2022-11-13T02:25:00.456Z,36.00
2022-11-13T02:28:02.405Z,37.90
2022-11-13T02:31:09.176Z,35.40
2022-11-13T02:34:10.865Z,37.00
2022-11-13T02:37:12.537Z,35.10
2022-11-13T02:43:16.041Z,35.40
2022-11-13T02:46:17.665Z,35.10
2022-11-13T02:52:21.049Z,33.20
2022-11-13T02:55:22.882Z,33.00
2022-11-13T02:58:24.693Z,35.30
2022-11-13T03:01:26.430Z,35.00
2022-11-13T03:04:44.048Z,34.80
2022-11-13T03:07:49.830Z,34.70
2022-11-13T03:10:55.161Z,37.30
2022-11-13T03:13:56.839Z,40.60
2022-11-13T03:16:58.600Z,33.60
2022-11-13T03:26:06.534Z,31.80
2022-11-13T03:29:08.269Z,34.50
2022-11-13T03:32:09.996Z,34.30
2022-11-13T03:35:11.719Z,36.90
2022-11-13T03:41:15.060Z,36.90
2022-11-13T03:44:16.862Z,36.70
2022-11-13T03:47:18.673Z,36.90
2022-11-13T03:53:21.939Z,34.40
2022-11-13T03:59:25.301Z,35.60
2022-11-13T04:02:27.014Z,34.20
2022-11-13T04:08:30.552Z,35.80
2022-11-13T04:11:32.637Z,35.80
2022-11-13T04:14:34.305Z,37.50
2022-11-13T04:20:37.640Z,34.40
2022-11-13T04:23:39.250Z,35.70
2022-11-13T04:29:42.548Z,35.50
2022-11-13T04:35:46.206Z,34.60
2022-11-13T04:38:47.768Z,35.70
2022-11-13T04:45:10.308Z,35.20
2022-11-13T04:48:12.040Z,37.20
2022-11-13T04:51:13.824Z,37.40
2022-11-13T04:54:15.788Z,35.60
2022-11-13T04:57:17.420Z,37.00
2022-11-13T05:00:19.447Z,37.10
2022-11-13T05:03:21.184Z,37.00
2022-11-13T05:06:23.251Z,36.80
2022-11-13T05:09:24.969Z,35.20
2022-11-13T05:12:26.644Z,32.50
2022-11-13T05:18:30.550Z,31.80
2022-11-13T05:21:36.741Z,30.20
2022-11-13T05:24:38.436Z,34.20
2022-11-13T05:30:41.514Z,33.60
2022-11-13T05:33:43.581Z,34.40
2022-11-13T05:36:45.516Z,35.30
2022-11-13T05:39:47.110Z,35.10
2022-11-13T05:45:50.224Z,35.40
2022-11-13T05:51:55.662Z,35.80
2022-11-13T05:54:57.375Z,36.50
2022-11-13T06:01:15.688Z,35.40
2022-11-13T06:04:17.505Z,37.90
2022-11-13T06:07:19.964Z,38.10
2022-11-13T06:10:21.625Z,38.90
2022-11-13T06:16:27.483Z,36.70
2022-11-13T06:19:29.388Z,36.60
2022-11-13T06:22:31.080Z,40.60
2022-11-13T06:25:32.906Z,40.40
2022-11-13T06:28:34.949Z,39.90
2022-11-13T06:31:37.439Z,40.30
2022-11-13T06:34:39.222Z,40.70
2022-11-13T06:37:41.077Z,40.20
2022-11-13T06:40:42.732Z,40.70
2022-11-13T06:46:46.207Z,40.60
2022-11-13T06:52:49.645Z,40.00
2022-11-13T06:55:51.482Z,40.70
2022-11-13T06:58:55.220Z,38.80
2022-11-13T07:01:56.950Z,39.10
2022-11-13T07:04:59.056Z,39.80
2022-11-13T07:08:00.862Z,41.70
2022-11-13T07:11:02.579Z,40.90
2022-11-13T07:14:04.398Z,40.70
2022-11-13T07:17:09.579Z,43.70
2022-11-13T07:20:12.290Z,36.80
2022-11-13T07:23:14.137Z,38.90
2022-11-13T07:26:16.180Z,40.30
2022-11-13T07:29:17.806Z,41.50
2022-11-13T07:35:21.180Z,39.80
2022-11-13T07:41:24.578Z,37.90
2022-11-13T07:44:53.019Z,35.90
2022-11-13T07:47:48.184Z,35.50
2022-11-13T07:50:50.624Z,38.70
2022-11-13T07:53:52.442Z,40.30
2022-11-13T07:56:54.228Z,38.00
2022-11-13T07:59:56.081Z,33.80
2022-11-13T08:02:57.675Z,37.80
2022-11-13T08:09:05.384Z,38.20
2022-11-13T08:12:07.283Z,37.90
2022-11-13T08:15:13.347Z,38.10
2022-11-13T08:18:15.678Z,40.30
2022-11-13T08:21:17.552Z,38.30
2022-11-13T08:24:19.201Z,40.80
2022-11-13T08:30:24.881Z,36.40
2022-11-13T08:33:27.131Z,34.50
2022-11-13T08:36:28.761Z,33.80
2022-11-13T08:42:31.988Z,36.00
2022-11-13T08:48:35.274Z,38.00
2022-11-13T08:51:37.190Z,47.60
2022-11-13T08:54:38.989Z,43.80
2022-11-13T08:57:40.624Z,39.50
2022-11-13T09:03:44.135Z,39.80
2022-11-13T09:06:45.907Z,41.80
2022-11-13T09:12:49.573Z,37.60
2022-11-13T09:15:51.162Z,43.20
2022-11-13T09:21:54.809Z,43.00
2022-11-13T09:24:56.701Z,42.00
2022-11-13T09:31:05.213Z,39.00
2022-11-13T09:34:08.076Z,38.90
2022-11-13T09:37:09.867Z,40.40
2022-11-13T09:43:38.338Z,32.60
2022-11-13T09:46:47.834Z,31.70
2022-11-13T09:49:53.102Z,31.40
2022-11-13T09:52:55.261Z,32.60
2022-11-13T09:56:15.484Z,31.00
2022-11-13T09:59:23.725Z,29.80
2022-11-13T10:02:47.365Z,29.30
2022-11-13T10:05:52.989Z,31.60
2022-11-13T10:09:01.753Z,28.20
2022-11-13T10:12:07.788Z,31.40
2022-11-13T10:15:10.857Z,32.70
2022-11-13T10:18:26.652Z,29.40
2022-11-13T10:21:42.726Z,30.50
2022-11-13T10:24:45.203Z,31.00
2022-11-13T10:27:54.983Z,29.00
2022-11-13T10:30:56.901Z,30.40
2022-11-13T10:33:59.172Z,31.50
2022-11-13T10:37:39.910Z,32.60
2022-11-13T10:40:41.756Z,29.50
2022-11-13T10:44:19.888Z,29.00
2022-11-13T10:47:49.006Z,30.30
2022-11-13T10:50:53.729Z,27.30
2022-11-13T10:53:56.196Z,28.90
2022-11-13T10:57:02.538Z,29.30
2022-11-13T11:00:23.388Z,29.10
2022-11-13T11:03:25.942Z,31.00
2022-11-13T11:07:04.990Z,29.40
2022-11-13T11:09:57.550Z,29.20
2022-11-13T11:16:04.446Z,27.00
2022-11-13T11:19:09.813Z,26.60
2022-11-13T11:22:23.065Z,29.20
2022-11-13T11:25:50.108Z,26.90
2022-11-13T11:29:29.503Z,28.20
2022-11-13T11:33:02.094Z,28.00
2022-11-13T11:36:22.192Z,29.20
2022-11-13T11:39:30.324Z,28.70
2022-11-13T11:42:38.912Z,28.60
2022-11-13T11:45:45.047Z,27.80
2022-11-13T11:48:46.736Z,28.30
2022-11-13T11:52:37.877Z,29.70
2022-11-13T11:55:53.760Z,28.20
2022-11-13T11:59:10.376Z,27.50
2022-11-13T12:02:27.135Z,27.20
2022-11-13T12:06:08.110Z,27.40
2022-11-13T12:09:33.306Z,28.50
2022-11-13T12:12:41.062Z,31.30
2022-11-13T12:16:05.501Z,30.30
2022-11-13T12:19:36.331Z,32.10
2022-11-13T12:22:48.642Z,29.30
2022-11-13T12:26:31.051Z,27.80
2022-11-13T12:29:46.452Z,27.00
2022-11-13T12:33:07.000Z,28.70
2022-11-13T12:36:11.454Z,30.00
2022-11-13T12:39:38.412Z,28.30
2022-11-13T12:42:54.593Z,29.20
2022-11-13T12:46:01.361Z,27.90
2022-11-13T12:49:14.263Z,27.60
2022-11-13T12:52:16.029Z,28.10
2022-11-13T12:55:32.505Z,29.20
2022-11-13T12:58:34.190Z,29.50
2022-11-13T13:01:46.981Z,29.00
2022-11-13T13:05:14.648Z,28.20
2022-11-13T13:08:46.886Z,29.70
2022-11-13T13:12:18.117Z,30.30
2022-11-13T13:15:56.465Z,29.90
2022-11-13T13:19:24.976Z,30.20
2022-11-13T13:22:32.493Z,29.30
2022-11-13T13:25:35.563Z,32.20
2022-11-13T13:28:40.260Z,32.00
2022-11-13T13:32:15.470Z,32.50
2022-11-13T13:35:30.009Z,35.00
2022-11-13T13:38:53.489Z,33.10
2022-11-13T13:42:22.795Z,34.70
2022-11-13T13:45:43.437Z,33.00
2022-11-13T13:48:46.816Z,33.60
2022-11-13T13:51:51.808Z,32.00
2022-11-13T13:54:53.889Z,32.40
2022-11-13T13:57:55.581Z,30.90
2022-11-13T14:01:18.130Z,34.90
2022-11-13T14:04:22.806Z,36.50
2022-11-13T14:07:29.860Z,38.00
2022-11-13T14:10:31.470Z,38.30
2022-11-13T14:19:36.952Z,37.70
2022-11-13T14:22:40.046Z,39.80
2022-11-13T14:25:42.371Z,44.20
2022-11-13T14:28:54.909Z,45.90
2022-11-13T14:32:03.290Z,43.70
2022-11-13T14:35:05.703Z,47.50
2022-11-13T14:38:19.151Z,50.50
2022-11-13T14:41:24.973Z,84.60
2022-11-13T14:44:32.603Z,52.00
2022-11-13T14:47:37.719Z,48.30
2022-11-13T14:50:52.934Z,48.70
2022-11-13T14:54:07.587Z,53.90
2022-11-13T14:57:13.181Z,48.80
2022-11-13T15:00:20.438Z,49.90
2022-11-13T15:03:22.298Z,48.10
2022-11-13T15:06:26.814Z,49.90
2022-11-13T15:09:30.221Z,51.40
2022-11-13T15:12:31.934Z,64.70
2022-11-13T15:18:35.762Z,73.70
2022-11-13T15:21:37.661Z,55.10
2022-11-13T15:24:39.528Z,51.20
2022-11-13T15:27:43.259Z,50.60
2022-11-13T15:30:53.159Z,48.80
2022-11-13T15:33:55.707Z,51.10
2022-11-13T15:36:57.288Z,54.30
2022-11-13T15:43:01.687Z,58.80
2022-11-13T15:46:03.951Z,61.40
2022-11-13T15:49:05.585Z,60.30
2022-11-13T15:55:27.834Z,53.00
2022-11-13T15:58:33.704Z,54.20
2022-11-13T16:01:36.480Z,54.70
2022-11-13T16:04:55.541Z,56.30
2022-11-13T16:07:58.674Z,63.00
2022-11-13T16:11:00.880Z,74.30
2022-11-13T16:14:02.514Z,62.60
2022-11-13T16:20:16.785Z,67.50
2022-11-13T16:23:18.420Z,79.10
2022-11-13T16:29:24.559Z,64.70
2022-11-13T16:32:26.475Z,64.40
2022-11-13T16:35:28.106Z,62.10
2022-11-13T16:44:33.820Z,66.20
2022-11-13T16:47:35.544Z,67.00
2022-11-13T16:53:41.346Z,63.60
2022-11-13T16:59:44.684Z,65.60
2022-11-13T17:05:52.670Z,67.40
2022-11-13T17:08:56.613Z,67.10
2022-11-13T17:11:58.284Z,72.00
2022-11-13T17:18:01.854Z,82.70
2022-11-13T17:21:03.699Z,74.80
2022-11-13T17:24:05.789Z,69.30
2022-11-13T17:27:07.533Z,75.50
2022-11-13T17:33:11.794Z,69.00
2022-11-13T17:39:14.964Z,71.20
2022-11-13T17:45:18.634Z,71.00
2022-11-13T17:48:20.385Z,74.50
2022-11-13T17:51:22.194Z,73.80
2022-11-13T17:54:25.417Z,74.20
2022-11-13T17:57:27.340Z,71.50
2022-11-13T18:00:29.287Z,72.60
2022-11-13T18:03:31.627Z,77.20
2022-11-13T18:06:33.417Z,78.30
2022-11-13T18:15:39.489Z,71.60
2022-11-13T18:18:41.402Z,70.30
2022-11-13T18:21:44.079Z,76.50
2022-11-13T18:24:45.900Z,73.60
2022-11-13T18:27:47.726Z,66.50
2022-11-13T18:30:55.061Z,69.60
2022-11-13T18:33:59.852Z,71.80
2022-11-13T18:37:01.462Z,70.90
2022-11-13T18:43:05.289Z,67.90
2022-11-13T18:49:09.596Z,71.90
2022-11-13T18:52:11.410Z,75.20
2022-11-13T18:55:13.040Z,65.20
2022-11-13T19:01:25.413Z,72.90
2022-11-13T19:04:27.152Z,74.10
2022-11-13T19:10:30.354Z,82.00
2022-11-13T19:16:39.533Z,72.80
2022-11-13T19:19:42.382Z,71.30
2022-11-13T19:22:44.409Z,71.40
2022-11-13T19:25:48.980Z,68.20
2022-11-13T19:28:52.332Z,67.60
2022-11-13T19:31:56.333Z,69.60
2022-11-13T19:34:58.228Z,67.80
2022-11-13T19:38:01.152Z,71.00
2022-11-13T19:41:04.140Z,69.20
2022-11-13T19:44:06.828Z,69.20
2022-11-13T19:47:08.621Z,70.10
2022-11-13T19:50:10.444Z,69.90
2022-11-13T19:53:12.162Z,68.90
2022-11-13T19:59:16.387Z,69.60
2022-11-13T20:02:18.001Z,77.40
2022-11-13T20:05:19.635Z,75.60
2022-11-13T20:11:29.937Z,78.10
2022-11-13T20:14:35.698Z,82.90
2022-11-13T20:17:39.978Z,89.80
2022-11-13T20:20:44.414Z,67.40
2022-11-13T20:23:46.217Z,65.10
2022-11-13T20:26:48.166Z,61.80
2022-11-13T20:29:49.965Z,63.90
2022-11-13T20:32:51.693Z,66.00
2022-11-13T20:35:54.225Z,65.50
2022-11-13T20:38:57.110Z,66.00
2022-11-13T20:41:59.037Z,64.00
2022-11-13T20:45:01.550Z,65.00
2022-11-13T20:48:03.540Z,58.60
2022-11-13T20:51:07.417Z,57.80
2022-11-13T20:54:09.331Z,63.00
2022-11-13T20:57:11.302Z,67.10
2022-11-13T21:06:19.163Z,71.60
2022-11-13T21:09:20.967Z,83.10
2022-11-13T21:12:22.915Z,64.00
2022-11-13T21:15:24.575Z,62.90
2022-11-13T21:21:29.139Z,60.20
2022-11-13T21:24:31.257Z,63.20
2022-11-13T21:27:32.971Z,61.20
2022-11-13T21:30:34.866Z,46.20
2022-11-13T21:33:37.959Z,44.40
2022-11-13T21:36:39.553Z,48.90
2022-11-13T21:42:43.169Z,44.90
2022-11-13T21:45:44.859Z,44.40
2022-11-13T21:48:47.225Z,44.40
2022-11-13T21:51:49.109Z,45.40
2022-11-13T21:54:50.782Z,43.40
2022-11-13T22:00:54.206Z,44.00
2022-11-13T22:03:55.973Z,43.30
2022-11-13T22:06:57.904Z,41.40
2022-11-13T22:10:04.044Z,46.30
2022-11-13T22:13:08.705Z,40.50
2022-11-13T22:16:11.793Z,40.50
2022-11-13T22:19:23.833Z,40.20
2022-11-13T22:22:28.392Z,42.50
2022-11-13T22:28:33.041Z,40.40
2022-11-13T22:31:36.093Z,42.50
2022-11-13T22:34:38.734Z,48.90
2022-11-13T22:37:40.332Z,45.10
2022-11-13T22:40:42.218Z,42.20
2022-11-13T22:43:45.124Z,40.80
2022-11-13T22:46:46.717Z,41.20
2022-11-13T22:52:52.173Z,39.00
2022-11-13T22:55:53.716Z,37.80
2022-11-13T22:58:57.065Z,37.10
2022-11-13T23:01:58.703Z,35.90
2022-11-13T23:05:00.400Z,37.80
2022-11-13T23:11:03.769Z,27.50
2022-11-13T23:14:10.146Z,29.30
2022-11-13T23:17:11.984Z,26.70
2022-11-13T23:20:14.856Z,27.30
2022-11-13T23:26:19.447Z,27.70
2022-11-13T23:29:21.222Z,29.30
2022-11-13T23:32:23.556Z,31.90
2022-11-13T23:35:25.233Z,33.50
2022-11-13T23:41:29.178Z,32.00
2022-11-13T23:44:30.867Z,44.90
2022-11-13T23:50:34.450Z,30.90
2022-11-13T23:53:36.130Z,32.00
2022-11-13T23:59:39.483Z,28.60
